Evanston, Wyoming
Current Conditions -  °F | °C
As of 7:53 AM on Wednesday 26 Nov 2014 (Local Time) from KEVW Reporting Station
Clear Clear  
Wind Chill: 24°   Ceiling: Unl
Heat Index: 34°   Visibility: 10mi
Dew Point: 28°   Wind: 15mph
Humidity: 79%   Direction: 250°WSW
Pressure: 30.35"   Gusts: NA
Location:  41.27°N, 110.96°W
Report Text: KEVW 261453Z AUTO 25013KT 10SM CLR 01/M02 A3035 RMK AO2 SLP274 T00111022 53018
Loading
Personal Weather Stations






























Interactive Weather Map New forecast layout! Learn more

10-Day Weather Forecast

Advertisements
Track Severe Weather on mobile